Chenois Creek, Washington
Current Conditions -  °F | °C
As of 7:53 AM on Monday 24 Nov 2014 (Local Time) from KHQM Reporting Station
Overcast Overcast  
Wind Chill: 35°   Ceiling: 2500
Heat Index: 41°   Visibility: 7mi
Dew Point: 41°   Wind: 9mph
Humidity: 100%   Direction: 50°NE
Pressure: 30.33"   Gusts: NA
Location:  47.0202°N, 123.878°W
Report Text: KHQM 241553Z AUTO 05008KT 7SM OVC025 05/05 A3033 RMK AO2 SLP273 T00500050
Loading
Personal Weather Stations






























Interactive Weather Map New forecast layout! Learn more

10-Day Weather Forecast

Advertisements
Track Severe Weather on mobile